createdAt,value
2022-08-17T00:02:25.253Z,99879.38
2022-08-17T00:07:29.139Z,99880.59
2022-08-17T00:12:41.925Z,99877.22
2022-08-17T00:17:48.578Z,99884.16
2022-08-17T00:22:50.807Z,99884.78
2022-08-17T00:27:53.471Z,99884.91
2022-08-17T00:33:15.710Z,99882.88
2022-08-17T00:38:19.096Z,99878.75
2022-08-17T00:43:32.583Z,99874.88
2022-08-17T00:48:35.847Z,99887.25
2022-08-17T00:53:43.267Z,99879.47
2022-08-17T00:58:45.334Z,99869.44
2022-08-17T01:03:47.772Z,99869.34
2022-08-17T01:08:57.454Z,99871.69
2022-08-17T01:13:59.947Z,99868.00
2022-08-17T01:19:06.616Z,99859.06
2022-08-17T01:24:08.924Z,99856.13
2022-08-17T01:29:11.723Z,99854.97
2022-08-17T01:34:16.034Z,99864.00
2022-08-17T01:39:29.333Z,99852.75
2022-08-17T01:44:31.977Z,99842.25
2022-08-17T01:49:34.325Z,99863.56
2022-08-17T01:54:39.880Z,99859.47
2022-08-17T01:59:42.227Z,99863.09
2022-08-17T02:04:44.369Z,99856.78
2022-08-17T02:09:46.560Z,99863.72
2022-08-17T02:14:54.798Z,99837.47
2022-08-17T02:19:57.057Z,99853.72
2022-08-17T02:25:02.327Z,99851.53
2022-08-17T02:31:00.093Z,99839.44
2022-08-17T02:35:29.593Z,99847.44
2022-08-17T02:40:35.053Z,99855.63
2022-08-17T02:45:38.599Z,99853.72
2022-08-17T02:50:40.953Z,99856.19
2022-08-17T02:55:43.851Z,99847.06
2022-08-17T03:00:48.392Z,99851.97
2022-08-17T03:05:53.642Z,99857.50
2022-08-17T03:10:56.180Z,99850.59
2022-08-17T03:15:58.812Z,99844.97
2022-08-17T03:21:04.383Z,99852.66
2022-08-17T03:26:12.179Z,99857.94
2022-08-17T03:31:18.490Z,99848.69
2022-08-17T03:36:20.661Z,99847.63
2022-08-17T03:41:22.725Z,99843.63
2022-08-17T03:46:43.219Z,99853.34
2022-08-17T03:52:04.011Z,99846.88
2022-08-17T03:57:09.318Z,99848.34
2022-08-17T04:02:19.094Z,99856.25
2022-08-17T04:07:22.893Z,99846.84
2022-08-17T04:12:25.680Z,99848.69
2022-08-17T04:17:29.140Z,99845.03
2022-08-17T04:22:34.245Z,99842.53
2022-08-17T04:27:36.770Z,99838.84
2022-08-17T04:33:04.182Z,99844.81
2022-08-17T04:38:14.396Z,99835.72
2022-08-17T04:43:19.760Z,99835.44
2022-08-17T04:48:22.467Z,99843.28
2022-08-17T04:53:24.546Z,99836.53
2022-08-17T04:58:26.720Z,99837.81
2022-08-17T05:03:29.068Z,99827.47
2022-08-17T05:08:31.289Z,99826.63
2022-08-17T05:13:33.332Z,99823.19
2022-08-17T05:18:35.382Z,99811.94
2022-08-17T05:23:42.035Z,99814.25
2022-08-17T05:28:45.394Z,99803.28
2022-08-17T05:33:49.605Z,99812.47
2022-08-17T05:38:51.675Z,99809.22
2022-08-17T05:43:56.409Z,99801.38
2022-08-17T05:49:08.518Z,99807.56
2022-08-17T05:54:41.342Z,99801.66
2022-08-17T06:00:11.142Z,99804.06
2022-08-17T06:05:32.370Z,99800.56
2022-08-17T06:10:46.587Z,99798.66
2022-08-17T06:16:25.896Z,99797.31
2022-08-17T06:21:35.904Z,99800.69
2022-08-17T06:26:43.464Z,99793.94
2022-08-17T06:31:46.220Z,99796.22
2022-08-17T06:37:03.861Z,99798.16
2022-08-17T06:43:00.875Z,99795.09
2022-08-17T06:48:00.975Z,99792.72
2022-08-17T06:53:14.284Z,99793.03
2022-08-17T06:58:21.703Z,99781.84
2022-08-17T07:03:27.144Z,99779.66
2022-08-17T07:08:51.203Z,99774.38
2022-08-17T07:14:24.671Z,99784.66
2022-08-17T07:19:32.251Z,99764.81
2022-08-17T07:24:45.206Z,99761.94
2022-08-17T07:29:54.566Z,99769.41
2022-08-17T07:35:01.149Z,99764.28
2022-08-17T07:40:33.811Z,99766.94
2022-08-17T07:45:56.951Z,99750.88
2022-08-17T07:51:00.298Z,99751.13
2022-08-17T07:56:02.395Z,99742.19
2022-08-17T08:01:15.596Z,99755.84
2022-08-17T08:06:24.364Z,99748.09
2022-08-17T08:11:35.644Z,99752.72
2022-08-17T08:16:37.728Z,99745.53
2022-08-17T08:22:05.718Z,99744.09
2022-08-17T08:27:10.657Z,99725.13
2022-08-17T08:32:33.807Z,99733.31
2022-08-17T08:38:02.956Z,99736.03
2022-08-17T08:43:14.219Z,99725.81
2022-08-17T08:48:56.921Z,99732.28
2022-08-17T08:54:06.622Z,99725.47
2022-08-17T08:59:14.333Z,99712.38
2022-08-17T09:04:24.634Z,99711.16
2022-08-17T09:09:33.497Z,99719.59
2022-08-17T09:14:46.442Z,99710.34
2022-08-17T09:19:53.468Z,99704.75
2022-08-17T09:25:03.811Z,99719.06
2022-08-17T09:30:10.391Z,99711.16
2022-08-17T09:35:25.125Z,99715.91
2022-08-17T09:40:57.312Z,99707.25
2022-08-17T09:46:04.159Z,99709.81
2022-08-17T09:51:23.074Z,99706.44
2022-08-17T09:57:25.792Z,99707.16
2022-08-17T10:03:05.276Z,99695.38
2022-08-17T10:08:22.864Z,99706.81
2022-08-17T10:13:34.351Z,99694.00
2022-08-17T10:18:54.748Z,99682.56
2022-08-17T10:25:22.285Z,99685.78
2022-08-17T10:30:30.770Z,99686.31
2022-08-17T10:35:47.051Z,99693.66
2022-08-17T10:41:24.537Z,99685.22
2022-08-17T10:46:35.212Z,99682.97
2022-08-17T10:51:40.071Z,99673.38
2022-08-17T10:56:49.652Z,99685.16
2022-08-17T11:01:58.686Z,99659.28
2022-08-17T11:07:06.494Z,99669.06
2022-08-17T11:12:37.703Z,99656.13
2022-08-17T11:17:49.846Z,99654.66
2022-08-17T11:23:04.826Z,99635.44
2022-08-17T11:28:18.522Z,99650.63
2022-08-17T11:33:29.472Z,99653.88
2022-08-17T11:38:43.133Z,99652.97
2022-08-17T11:44:29.322Z,99654.97
2022-08-17T11:50:04.846Z,99661.03
2022-08-17T11:55:33.962Z,99645.28
2022-08-17T12:01:06.944Z,99642.94
2022-08-17T12:06:31.203Z,99630.03
2022-08-17T12:12:12.007Z,99625.38
2022-08-17T12:17:40.531Z,99604.09
2022-08-17T12:23:32.012Z,99637.28
2022-08-17T12:28:36.634Z,99636.44
2022-08-17T12:33:43.985Z,99623.72
2022-08-17T12:38:59.554Z,99615.34
2022-08-17T12:44:24.557Z,99630.81
2022-08-17T12:49:29.665Z,99606.63
2022-08-17T12:54:55.930Z,99610.22
2022-08-17T13:00:10.003Z,99618.69
2022-08-17T13:05:31.985Z,99621.53
2022-08-17T13:10:36.552Z,99614.09
2022-08-17T13:15:44.330Z,99615.06
2022-08-17T13:20:55.261Z,99616.88
2022-08-17T13:26:05.024Z,99612.41
2022-08-17T13:31:27.910Z,99608.53
2022-08-17T13:36:33.988Z,99615.78
2022-08-17T13:41:38.298Z,99611.53
2022-08-17T13:46:40.402Z,99606.94
2022-08-17T13:51:44.782Z,99609.66
2022-08-17T13:56:52.089Z,99599.34
2022-08-17T14:01:54.704Z,99608.59
2022-08-17T14:06:59.061Z,99613.38
2022-08-17T14:12:03.603Z,99612.94
2022-08-17T14:17:05.950Z,99600.78
2022-08-17T14:22:18.323Z,99598.63
2022-08-17T14:27:21.095Z,99595.19
2022-08-17T14:32:27.487Z,99603.53
2022-08-17T14:37:29.955Z,99601.31
2022-08-17T14:42:34.239Z,99605.50
2022-08-17T14:47:37.670Z,99604.50
2022-08-17T14:52:41.910Z,99606.25
2022-08-17T14:57:45.468Z,99595.91
2022-08-17T15:02:54.802Z,99602.38
2022-08-17T15:07:57.887Z,99593.47
2022-08-17T15:13:00.533Z,99587.81
2022-08-17T15:18:03.417Z,99587.94
2022-08-17T15:23:07.104Z,99589.13
2022-08-17T15:28:09.210Z,99586.84
2022-08-17T15:33:16.420Z,99595.91
2022-08-17T15:38:18.656Z,99594.66
2022-08-17T15:43:28.057Z,99594.66
2022-08-17T15:48:42.020Z,99590.59
2022-08-17T15:53:47.222Z,99601.47
2022-08-17T15:58:50.100Z,99603.16
2022-08-17T16:04:04.518Z,99596.56
2022-08-17T16:09:09.000Z,99598.66
2022-08-17T16:14:11.075Z,99600.63
2022-08-17T16:19:16.694Z,99593.66
2022-08-17T16:24:18.835Z,99598.94
2022-08-17T16:29:21.518Z,99592.19
2022-08-17T16:34:24.418Z,99604.50
2022-08-17T16:39:29.456Z,99603.47
2022-08-17T16:44:32.609Z,99617.84
2022-08-17T16:49:36.670Z,99608.84
2022-08-17T16:54:43.821Z,99599.34
2022-08-17T16:59:50.320Z,99606.59
2022-08-17T17:05:02.618Z,99609.50
2022-08-17T17:10:09.376Z,99612.50
2022-08-17T17:15:14.873Z,99605.69
2022-08-17T17:20:25.612Z,99618.59
2022-08-17T17:25:35.956Z,99611.19
2022-08-17T17:30:56.841Z,99601.38
2022-08-17T17:36:09.070Z,99603.97
2022-08-17T17:41:52.586Z,99595.81
2022-08-17T17:46:59.087Z,99583.94
2022-08-17T17:52:26.866Z,99589.88
2022-08-17T17:57:40.931Z,99594.00
2022-08-17T18:03:07.982Z,99592.91
2022-08-17T18:08:34.202Z,99586.47
2022-08-17T18:14:04.473Z,99583.84
2022-08-17T18:19:25.136Z,99575.56
2022-08-17T18:24:36.440Z,99580.25
2022-08-17T18:29:45.953Z,99578.72
2022-08-17T18:35:08.022Z,99583.44
2022-08-17T18:40:19.740Z,99580.16
2022-08-17T18:45:33.438Z,99583.72
2022-08-17T18:50:41.326Z,99581.66
2022-08-17T18:55:43.502Z,99574.38
2022-08-17T19:00:48.499Z,99577.34
2022-08-17T19:05:56.419Z,99575.72
2022-08-17T19:11:04.076Z,99575.47
2022-08-17T19:16:17.678Z,99576.03
2022-08-17T19:21:45.569Z,99574.13
2022-08-17T19:27:06.470Z,99577.66
2022-08-17T19:32:11.319Z,99574.22
2022-08-17T19:37:31.229Z,99574.75
2022-08-17T19:42:53.457Z,99576.66
2022-08-17T19:48:18.544Z,99565.06
2022-08-17T19:54:01.461Z,99569.41
2022-08-17T19:59:12.503Z,99578.09
2022-08-17T20:04:31.906Z,99566.41
2022-08-17T20:09:38.884Z,99573.25
2022-08-17T20:15:22.086Z,99581.13
2022-08-17T20:20:49.999Z,99581.13
2022-08-17T20:26:26.358Z,99583.88
2022-08-17T20:32:13.524Z,99589.56
2022-08-17T20:37:15.487Z,99589.56
2022-08-17T20:42:20.176Z,99590.38
2022-08-17T20:47:28.338Z,99596.34
2022-08-17T20:52:48.674Z,99603.41
2022-08-17T20:57:50.824Z,99600.63
2022-08-17T21:03:50.087Z,99601.19
2022-08-17T21:09:12.838Z,99611.19
2022-08-17T21:15:06.004Z,99614.47
2022-08-17T21:20:32.773Z,99608.75
2022-08-17T21:26:02.609Z,99609.25
2022-08-17T21:31:09.112Z,99609.44
2022-08-17T21:36:17.148Z,99609.34
2022-08-17T21:41:23.739Z,99616.94
2022-08-17T21:46:31.539Z,99621.44
2022-08-17T21:51:37.940Z,99612.16
2022-08-17T21:56:45.305Z,99622.41
2022-08-17T22:01:55.981Z,99622.94
2022-08-17T22:07:01.046Z,99629.31
2022-08-17T22:12:12.601Z,99622.56
2022-08-17T22:17:20.530Z,99626.41
2022-08-17T22:22:27.004Z,99624.25
2022-08-17T22:27:52.401Z,99628.63
2022-08-17T22:32:55.467Z,99632.72
2022-08-17T22:38:17.737Z,99631.84
2022-08-17T22:43:26.040Z,99637.50
2022-08-17T22:48:30.433Z,99635.00
2022-08-17T22:53:53.618Z,99641.97
2022-08-17T22:59:17.308Z,99649.25
2022-08-17T23:04:37.636Z,99642.53
2022-08-17T23:09:39.887Z,99649.75
2022-08-17T23:14:46.081Z,99646.97
2022-08-17T23:19:48.092Z,99642.84
2022-08-17T23:24:50.729Z,99643.53
2022-08-17T23:29:52.788Z,99650.78
2022-08-17T23:34:54.872Z,99660.16
2022-08-17T23:39:57.268Z,99656.78
2022-08-17T23:44:59.420Z,99659.69
2022-08-17T23:50:05.491Z,99656.91
2022-08-17T23:55:08.558Z,99660.59
